Portada
METAR-TAF:

METAR-TAF

Aeroports :

Kupang, Indonèsia

latitud: 10-10-17S, longitud: 123-40-16E, altitud: 102 m

Observació

L'informe es va fer fa 17 minuts, a les 23:00 UTC
Vent 5 kt del Est/Sud-Est
Temperatura 25°C
Humitat 83%
Pressió 1014 hPa
Visibilitat 10 km o més
Escasses núvols a una alçada de 1800 ft

METAR: WATT 292300Z 12005KT 9999 FEW018 25/22 Q1014 NOSIG

Hora: 06:17 (23:17 UTC)

Pronòstic

L'informe es va fer fa 6 hores i 17 minuts, a les 17:00 UTC
Pronòstic vàlid del 29 a les 18 UTC al 30 a les 18 UTC
Vent 5 kt del Sud-Est
Visibilitat: 8000 m
Escasses núvols a una alçada de 1700 ft
Evolucionant progressivament
l' 30 a les 01 UTC al 30 a les 03 UTC
Vent 12 kt del Oest/Nord-Oest
Núvols disperses a una alçada de 1700 ft
Evolucionant progressivament
l' 30 a les 10 UTC al 30 a les 12 UTC
Vent 8 kt del Sud/Sud-Est

TAF: WATT 291700Z 2918/3018 14005KT 8000 FEW017 BECMG 3001/3003 30012KT SCT017 BECMG 3010/3012 15008KT

Observacions i pronòstics meteorològics de més de 4000 aeroports (METAR i TAF).

Les estacions disponibles són els punts grocs i vermells al mapa.

Posi el ratolí al punt desitjat per veure el nom de l'estació.

Feu clic per veure les observacions i els pronòstics meteorològics.

Per canviar el mapa: feu clic els botons verds amb una creu de color negre per apropar; al botó verd amb un guió per allunyar la imatge; o en les fletxes verdes per a mapes adjacents.


METAR-TAF: